Time;durP1;ratioP1;P1;durP2;ratioP2;P2;SDS_P1;SDS_P2;PMS_P1;PMS_P2;Temp;Humidity;BMP_temperature;BMP_pressure;BME280_temperature;BME280_humidity;BME280_pressure;Samples;Min_cycle;Max_cycle;Signal;HPM_P1;HPM_P2
2021/04/05 00:01:05;;;;;;;31.75;20.20;;;;;;;;;;5038566;28;20053;-88
2021/04/05 00:03:32;;;;;;;32.53;20.27;;;;;;;;;;5038628;28;20017;-87
2021/04/05 00:05:58;;;;;;;32.55;20.52;;;;;;;;;;5037993;28;20033;-87
2021/04/05 00:08:24;;;;;;;34.25;21.85;;;;;;;;;;5038624;28;20360;-87
2021/04/05 00:10:51;;;;;;;34.85;19.42;;;;;;;;;;5038530;28;20029;-90
2021/04/05 00:13:22;;;;;;;38.25;21.23;;;;;;;;;;5038192;28;20072;-89
2021/04/05 00:19:23;;;;;;;35.75;20.30;;;;;;;;;;5015744;28;20112;-87
2021/04/05 00:21:49;;;;;;;31.45;19.65;;;;;;;;;;4998989;28;20036;-87
2021/04/05 00:24:15;;;;;;;31.95;18.30;;;;;;;;;;4997880;28;20026;-87
2021/04/05 00:26:42;;;;;;;28.17;17.20;;;;;;;;;;4998545;28;20435;-87
2021/04/05 00:29:08;;;;;;;29.77;16.92;;;;;;;;;;4998950;28;20034;-86
2021/04/05 00:31:34;;;;;;;25.27;16.48;;;;;;;;;;4998778;28;20026;-87
2021/04/05 00:34:00;;;;;;;27.20;16.85;;;;;;;;;;4998556;28;20042;-88
2021/04/05 00:36:26;;;;;;;27.92;18.02;;;;;;;;;;4998710;28;20031;-89
2021/04/05 00:38:52;;;;;;;28.40;18.00;;;;;;;;;;4998789;28;20030;-90
2021/04/05 00:41:18;;;;;;;28.08;18.48;;;;;;;;;;4998707;28;20101;-89
2021/04/05 00:43:48;;;;;;;32.22;17.77;;;;;;;;;;4997525;28;20034;-89
2021/04/05 00:46:19;;;;;;;29.48;18.05;;;;;;;;;;4998537;28;20416;-88
2021/04/05 00:48:45;;;;;;;29.02;17.60;;;;;;;;;;4998959;28;20153;-88
2021/04/05 00:51:16;;;;;;;29.08;17.10;;;;;;;;;;4998738;28;20037;-89
2021/04/05 00:53:43;;;;;;;27.20;16.38;;;;;;;;;;4998615;28;20029;-88
2021/04/05 00:56:09;;;;;;;27.38;16.38;;;;;;;;;;4997375;28;20061;-87
2021/04/05 00:58:36;;;;;;;23.80;14.73;;;;;;;;;;4998312;28;20028;-87
2021/04/05 01:01:05;;;;;;;27.25;14.55;;;;;;;;;;4998039;28;20098;-87
2021/04/05 01:03:32;;;;;;;25.92;14.88;;;;;;;;;;4997335;28;20050;-87
2021/04/05 01:06:01;;;;;;;24.23;13.65;;;;;;;;;;4997186;28;20034;-86
2021/04/05 01:08:27;;;;;;;24.02;14.02;;;;;;;;;;4998569;28;20026;-88
2021/04/05 01:10:53;;;;;;;21.38;13.27;;;;;;;;;;4998239;28;20065;-88
2021/04/05 01:13:20;;;;;;;20.52;12.80;;;;;;;;;;4998121;28;20049;-88
2021/04/05 01:15:46;;;;;;;18.95;12.00;;;;;;;;;;4997990;28;20034;-88
2021/04/05 01:18:13;;;;;;;20.45;12.23;;;;;;;;;;4998097;28;20046;-88
2021/04/05 01:20:39;;;;;;;18.80;11.23;;;;;;;;;;5023653;28;20068;-89
2021/04/05 01:23:06;;;;;;;20.55;11.50;;;;;;;;;;5036072;28;20037;-88
2021/04/05 01:25:32;;;;;;;20.73;11.02;;;;;;;;;;5037502;28;20108;-88
2021/04/05 01:27:58;;;;;;;18.45;11.48;;;;;;;;;;5037518;28;20024;-89
2021/04/05 01:30:43;;;;;;;15.95;10.80;;;;;;;;;;5037332;28;20144;-90
2021/04/05 01:33:09;;;;;;;19.13;11.85;;;;;;;;;;5037755;28;20349;-89
2021/04/05 01:35:40;;;;;;;19.80;10.77;;;;;;;;;;5037579;28;20033;-89
2021/04/05 01:38:07;;;;;;;16.63;10.45;;;;;;;;;;5037210;28;20030;-89
2021/04/05 01:40:37;;;;;;;18.75;10.98;;;;;;;;;;5041308;28;20349;-88
2021/04/05 01:43:04;;;;;;;18.52;10.52;;;;;;;;;;5040117;28;20017;-88
2021/04/05 01:48:33;;;;;;;18.35;10.27;;;;;;;;;;5041019;28;20067;-90
2021/04/05 01:51:01;;;;;;;18.63;10.95;;;;;;;;;;5040081;28;20021;-89
2021/04/05 01:53:27;;;;;;;17.63;10.85;;;;;;;;;;5040041;28;20026;-87
2021/04/05 01:55:53;;;;;;;16.98;10.70;;;;;;;;;;5040779;28;20075;-88
2021/04/05 01:58:20;;;;;;;18.17;11.35;;;;;;;;;;5041010;28;20038;-89
2021/04/05 02:00:47;;;;;;;18.30;10.82;;;;;;;;;;5040735;28;20017;-88
2021/04/05 02:03:13;;;;;;;19.23;10.60;;;;;;;;;;5041030;28;20041;-88
2021/04/05 02:05:44;;;;;;;22.27;11.10;;;;;;;;;;5040528;28;20037;-88
2021/04/05 02:08:11;;;;;;;17.42;10.35;;;;;;;;;;5040549;28;20152;-89
2021/04/05 02:10:37;;;;;;;18.52;11.05;;;;;;;;;;5040807;28;20041;-89
2021/04/05 02:13:04;;;;;;;17.27;10.73;;;;;;;;;;5040675;28;20017;-89
2021/04/05 02:15:32;;;;;;;17.17;10.23;;;;;;;;;;5040833;28;20076;-89
2021/04/05 02:17:59;;;;;;;21.85;10.73;;;;;;;;;;5040559;28;20022;-88
2021/04/05 02:20:25;;;;;;;18.95;11.30;;;;;;;;;;5040309;28;20053;-88
2021/04/05 02:22:52;;;;;;;18.45;10.27;;;;;;;;;;5040245;28;20112;-88
2021/04/05 02:25:23;;;;;;;20.20;11.15;;;;;;;;;;5040528;28;20029;-88
2021/04/05 02:27:50;;;;;;;20.17;11.50;;;;;;;;;;5040231;28;20053;-89
2021/04/05 02:30:24;;;;;;;24.25;13.48;;;;;;;;;;5040283;28;20374;-89
2021/04/05 02:32:54;;;;;;;22.63;13.02;;;;;;;;;;5040078;28;20029;-89
2021/04/05 02:35:20;;;;;;;19.00;11.35;;;;;;;;;;5040159;28;20049;-89
2021/04/05 02:37:46;;;;;;;18.67;11.38;;;;;;;;;;5038277;28;20049;-90
2021/04/05 02:40:13;;;;;;;25.33;11.95;;;;;;;;;;5040238;28;20036;-89
2021/04/05 02:42:39;;;;;;;19.00;11.77;;;;;;;;;;5039956;28;20460;-90
2021/04/05 02:45:07;;;;;;;21.08;11.52;;;;;;;;;;5038546;28;20056;-89
2021/04/05 02:47:34;;;;;;;21.65;13.65;;;;;;;;;;5039982;28;20021;-90
2021/04/05 02:50:00;;;;;;;25.90;13.43;;;;;;;;;;5039676;28;20097;-89
2021/04/05 02:52:26;;;;;;;23.70;13.68;;;;;;;;;;5039724;28;20033;-91
2021/04/05 02:54:53;;;;;;;21.38;13.32;;;;;;;;;;5039874;28;20052;-90
2021/04/05 02:57:19;;;;;;;23.35;12.93;;;;;;;;;;5039527;28;20026;-89
2021/04/05 02:59:45;;;;;;;25.80;15.25;;;;;;;;;;5039789;28;20315;-89
2021/04/05 03:02:11;;;;;;;23.90;14.93;;;;;;;;;;5038685;28;20021;-89
2021/04/05 03:04:38;;;;;;;28.67;16.52;;;;;;;;;;5038879;28;20030;-90
2021/04/05 03:07:04;;;;;;;29.10;14.32;;;;;;;;;;5039429;28;20036;-89
2021/04/05 03:09:30;;;;;;;25.10;13.32;;;;;;;;;;5039414;28;20033;-89
2021/04/05 03:11:57;;;;;;;30.20;14.65;;;;;;;;;;5039297;28;20434;-89
2021/04/05 03:14:24;;;;;;;23.65;13.20;;;;;;;;;;5038054;28;20522;-89
2021/04/05 03:16:51;;;;;;;26.77;14.23;;;;;;;;;;5039335;28;20117;-89
2021/04/05 03:19:18;;;;;;;25.70;14.95;;;;;;;;;;5038101;28;20494;-89
2021/04/05 03:21:44;;;;;;;27.02;15.88;;;;;;;;;;5039203;28;20051;-88
2021/04/05 03:24:12;;;;;;;28.63;14.45;;;;;;;;;;5038839;28;20025;-88
2021/04/05 03:26:38;;;;;;;28.40;15.32;;;;;;;;;;5039532;28;20096;-89
2021/04/05 03:29:06;;;;;;;30.95;16.02;;;;;;;;;;5038372;28;20030;-90
2021/04/05 03:31:34;;;;;;;43.58;20.38;;;;;;;;;;5038981;28;20040;-89
2021/04/05 03:34:05;;;;;;;34.63;18.05;;;;;;;;;;5039045;28;20021;-89
2021/04/05 03:36:49;;;;;;;37.27;21.50;;;;;;;;;;5038761;28;20083;-89
2021/04/05 03:39:16;;;;;;;26.27;15.85;;;;;;;;;;5037603;28;20033;-90
2021/04/05 03:41:49;;;;;;;30.35;18.10;;;;;;;;;;5038935;28;20071;-89
2021/04/05 03:44:22;;;;;;;29.40;17.45;;;;;;;;;;5038879;28;20029;-88
2021/04/05 03:46:49;;;;;;;26.35;15.32;;;;;;;;;;5038388;28;20033;-88
2021/04/05 03:49:20;;;;;;;26.52;15.20;;;;;;;;;;5038859;28;20127;-89
2021/04/05 03:51:51;;;;;;;29.95;16.38;;;;;;;;;;5037661;28;20025;-88
2021/04/05 03:54:20;;;;;;;26.13;15.63;;;;;;;;;;5037357;28;20071;-88
2021/04/05 03:56:49;;;;;;;22.90;14.30;;;;;;;;;;5037660;28;20033;-89
2021/04/05 03:59:19;;;;;;;27.50;15.18;;;;;;;;;;5037640;28;20167;-88
2021/04/05 04:01:48;;;;;;;23.55;14.95;;;;;;;;;;5036514;28;20041;-88
2021/04/05 04:04:29;;;;;;;23.65;14.95;;;;;;;;;;5037588;28;20409;-90
2021/04/05 04:07:16;;;;;;;24.13;13.00;;;;;;;;;;5038692;28;20056;-90
2021/04/05 04:09:43;;;;;;;21.92;13.82;;;;;;;;;;5037038;28;20040;-88
2021/04/05 04:12:12;;;;;;;28.10;13.77;;;;;;;;;;5038665;28;20022;-88
2021/04/05 04:14:40;;;;;;;25.45;14.93;;;;;;;;;;5038316;28;20037;-88
2021/04/05 04:17:07;;;;;;;26.48;16.00;;;;;;;;;;5038089;28;20026;-90
2021/04/05 04:19:34;;;;;;;26.42;15.57;;;;;;;;;;5038191;28;20033;-88
2021/04/05 04:22:01;;;;;;;24.60;14.73;;;;;;;;;;5038183;28;20017;-91
2021/04/05 04:24:27;;;;;;;27.10;15.60;;;;;;;;;;5038129;28;20033;-89
2021/04/05 04:26:54;;;;;;;24.95;15.30;;;;;;;;;;5037941;28;20029;-89
2021/04/05 04:29:20;;;;;;;31.90;17.08;;;;;;;;;;5037951;28;20025;-90
2021/04/05 04:31:46;;;;;;;33.58;19.02;;;;;;;;;;5038208;28;20029;-90
2021/04/05 04:34:20;;;;;;;31.00;17.52;;;;;;;;;;5038115;28;20037;-89
2021/04/05 04:36:46;;;;;;;36.50;21.27;;;;;;;;;;5037768;28;20029;-90
2021/04/05 04:39:13;;;;;;;38.75;22.33;;;;;;;;;;5036566;28;20057;-89
2021/04/05 04:41:41;;;;;;;43.08;22.13;;;;;;;;;;5036864;28;20075;-89
2021/04/05 04:44:07;;;;;;;42.63;23.20;;;;;;;;;;5038024;28;20083;-89
2021/04/05 04:46:33;;;;;;;63.38;27.92;;;;;;;;;;5037916;28;20060;-90
2021/04/05 04:49:01;;;;;;;77.85;32.13;;;;;;;;;;5037732;28;20017;-90
2021/04/05 04:51:27;;;;;;;89.28;32.33;;;;;;;;;;5037477;28;20025;-89
2021/04/05 04:53:54;;;;;;;82.28;31.33;;;;;;;;;;5036708;28;20025;-89
2021/04/05 04:56:21;;;;;;;79.78;33.85;;;;;;;;;;5038014;28;20041;-89
2021/04/05 04:58:47;;;;;;;91.00;46.53;;;;;;;;;;5037574;28;20022;-89
2021/04/05 05:01:14;;;;;;;57.95;30.77;;;;;;;;;;5036592;28;20351;-88
2021/04/05 05:03:41;;;;;;;46.55;25.15;;;;;;;;;;5037867;28;20017;-88
2021/04/05 05:06:09;;;;;;;47.58;24.17;;;;;;;;;;5037636;28;20025;-88
2021/04/05 05:08:35;;;;;;;51.05;26.83;;;;;;;;;;5036619;28;20091;-87
2021/04/05 05:11:01;;;;;;;57.60;27.65;;;;;;;;;;5036801;28;20036;-87
2021/04/05 05:13:28;;;;;;;55.13;27.70;;;;;;;;;;5037889;28;20033;-89
2021/04/05 05:15:54;;;;;;;59.08;29.38;;;;;;;;;;5041678;28;20037;-89
2021/04/05 05:18:20;;;;;;;66.97;31.13;;;;;;;;;;5041904;28;20071;-89
2021/04/05 05:20:46;;;;;;;70.97;33.67;;;;;;;;;;5041449;28;20041;-90
2021/04/05 05:23:13;;;;;;;89.93;44.85;;;;;;;;;;5040599;28;20026;-90
2021/04/05 05:25:40;;;;;;;84.55;43.28;;;;;;;;;;5040074;28;20080;-89
2021/04/05 05:28:07;;;;;;;85.82;41.03;;;;;;;;;;5041491;28;20032;-89
2021/04/05 05:30:34;;;;;;;82.47;36.72;;;;;;;;;;5041010;28;20025;-89
2021/04/05 05:33:02;;;;;;;67.85;31.33;;;;;;;;;;5041230;28;20035;-89
2021/04/05 05:35:28;;;;;;;78.57;34.38;;;;;;;;;;5040236;28;20029;-87
2021/04/05 05:37:59;;;;;;;95.63;35.22;;;;;;;;;;5041373;28;20037;-90
2021/04/05 05:40:26;;;;;;;78.45;30.98;;;;;;;;;;5041316;28;20037;-87
2021/04/05 05:42:58;;;;;;;87.15;33.60;;;;;;;;;;5040161;28;20026;-86
2021/04/05 05:45:29;;;;;;;72.90;29.27;;;;;;;;;;5041284;28;20029;-87
2021/04/05 05:48:01;;;;;;;75.05;31.48;;;;;;;;;;5039908;28;20025;-81
2021/04/05 05:50:50;;;;;;;65.15;29.08;;;;;;;;;;5039757;28;20323;-85
2021/04/05 05:53:27;;;;;;;64.60;28.40;;;;;;;;;;5041126;28;20366;-84
2021/04/05 05:56:02;;;;;;;53.92;26.88;;;;;;;;;;5040727;28;20026;-84
2021/04/05 05:58:45;;;;;;;58.05;27.65;;;;;;;;;;5040493;28;20032;-83
2021/04/05 06:01:31;;;;;;;100.95;47.42;;;;;;;;;;5039623;28;20026;-83
2021/04/05 06:04:07;;;;;;;64.88;31.10;;;;;;;;;;5039574;28;20411;-84
2021/04/05 06:06:50;;;;;;;70.38;33.83;;;;;;;;;;5039515;28;20029;-83
2021/04/05 06:09:28;;;;;;;97.40;43.28;;;;;;;;;;5040380;28;20029;-84
2021/04/05 06:12:07;;;;;;;81.93;39.53;;;;;;;;;;5040294;28;20415;-83
2021/04/05 06:14:40;;;;;;;82.93;38.60;;;;;;;;;;5038582;28;20042;-84
2021/04/05 06:17:09;;;;;;;121.63;53.75;;;;;;;;;;5039993;28;20116;-83
2021/04/05 06:19:47;;;;;;;90.35;39.72;;;;;;;;;;5040094;28;20323;-84
2021/04/05 06:22:33;;;;;;;94.78;41.72;;;;;;;;;;5040195;28;20477;-84
2021/04/05 06:25:05;;;;;;;113.90;46.58;;;;;;;;;;5039721;28;20091;-84
2021/04/05 06:27:49;;;;;;;106.50;47.88;;;;;;;;;;5038886;28;20038;-84
2021/04/05 06:30:25;;;;;;;109.70;50.88;;;;;;;;;;5039009;28;20438;-84
2021/04/05 06:33:06;;;;;;;93.75;40.25;;;;;;;;;;5038545;28;20419;-83
2021/04/05 06:35:53;;;;;;;77.20;36.85;;;;;;;;;;5039897;28;20036;-83
2021/04/05 06:38:19;;;;;;;74.82;33.70;;;;;;;;;;5038800;28;20087;-83
2021/04/05 06:40:45;;;;;;;60.35;29.92;;;;;;;;;;5039956;28;20415;-84
2021/04/05 06:43:30;;;;;;;57.10;30.15;;;;;;;;;;5038900;28;20407;-83
2021/04/05 06:46:02;;;;;;;57.22;31.48;;;;;;;;;;5039964;28;20046;-83
2021/04/05 06:48:47;;;;;;;63.97;30.60;;;;;;;;;;5038553;28;20036;-83
2021/04/05 06:51:31;;;;;;;64.78;28.58;;;;;;;;;;5039512;28;20057;-83
2021/04/05 06:54:16;;;;;;;59.50;28.58;;;;;;;;;;5038101;28;20040;-83
2021/04/05 06:56:45;;;;;;;53.42;26.00;;;;;;;;;;5039537;28;20025;-84
2021/04/05 06:59:11;;;;;;;53.10;27.48;;;;;;;;;;5038481;28;20100;-83
2021/04/05 07:01:49;;;;;;;53.42;26.88;;;;;;;;;;5039599;28;20022;-83
2021/04/05 07:04:34;;;;;;;54.03;26.30;;;;;;;;;;5039404;28;20049;-84
2021/04/05 07:07:19;;;;;;;49.13;24.35;;;;;;;;;;5039527;28;20049;-83
2021/04/05 07:09:47;;;;;;;48.72;23.15;;;;;;;;;;5037861;28;20366;-83
2021/04/05 07:12:25;;;;;;;46.17;22.80;;;;;;;;;;5037791;28;20045;-82
2021/04/05 07:14:51;;;;;;;43.65;21.75;;;;;;;;;;5039010;28;20060;-83
2021/04/05 07:17:20;;;;;;;38.65;18.25;;;;;;;;;;5038947;28;20025;-82
2021/04/05 07:20:01;;;;;;;41.22;20.35;;;;;;;;;;5038510;28;20065;-82
2021/04/05 07:22:39;;;;;;;39.15;20.60;;;;;;;;;;5038936;28;20063;-82
2021/04/05 07:25:07;;;;;;;50.83;22.45;;;;;;;;;;5037873;28;20051;-83
2021/04/05 07:27:48;;;;;;;82.93;31.33;;;;;;;;;;5037763;28;20028;-81
2021/04/05 07:30:21;;;;;;;47.00;21.15;;;;;;;;;;5038862;28;20045;-82
2021/04/05 07:33:07;;;;;;;32.30;16.05;;;;;;;;;;5038652;28;20052;-82
2021/04/05 07:35:55;;;;;;;45.17;21.30;;;;;;;;;;5038261;28;20407;-82
2021/04/05 07:38:27;;;;;;;28.20;16.45;;;;;;;;;;5036776;28;20069;-82
2021/04/05 07:41:05;;;;;;;21.85;13.07;;;;;;;;;;5038781;28;20021;-82
2021/04/05 07:43:57;;;;;;;22.00;12.60;;;;;;;;;;5038342;28;20116;-82
2021/04/05 07:46:38;;;;;;;22.77;14.05;;;;;;;;;;5038260;28;20101;-83
2021/04/05 07:49:10;;;;;;;21.60;12.45;;;;;;;;;;5038616;28;20033;-82
2021/04/05 07:51:36;;;;;;;24.15;12.75;;;;;;;;;;5038466;28;20037;-82
2021/04/05 07:54:04;;;;;;;22.70;12.82;;;;;;;;;;5038300;28;20025;-82
2021/04/05 07:56:33;;;;;;;37.78;20.80;;;;;;;;;;5037184;28;20132;-82
2021/04/05 07:58:59;;;;;;;20.00;12.20;;;;;;;;;;5040745;28;20022;-88
2021/04/05 08:01:29;;;;;;;21.63;12.18;;;;;;;;;;5037885;28;20018;-82
2021/04/05 08:03:55;;;;;;;20.90;12.63;;;;;;;;;;5038054;28;20056;-86
2021/04/05 08:06:24;;;;;;;18.67;12.25;;;;;;;;;;5038459;28;20029;-86
2021/04/05 08:08:53;;;;;;;22.75;14.25;;;;;;;;;;5038381;28;20025;-86
2021/04/05 08:11:19;;;;;;;38.35;24.35;;;;;;;;;;5038289;28;20411;-86
2021/04/05 08:14:03;;;;;;;27.35;16.98;;;;;;;;;;5038105;28;20041;-85
2021/04/05 08:16:41;;;;;;;18.20;11.63;;;;;;;;;;5038389;28;20025;-86
2021/04/05 08:19:20;;;;;;;16.75;10.40;;;;;;;;;;5038100;28;20021;-85
2021/04/05 08:21:55;;;;;;;18.23;11.38;;;;;;;;;;5038082;28;20378;-85
2021/04/05 08:24:21;;;;;;;15.10;9.90;;;;;;;;;;5038049;28;20108;-86
2021/04/05 08:26:59;;;;;;;21.42;13.43;;;;;;;;;;5038165;28;20033;-86
2021/04/05 08:29:46;;;;;;;16.90;11.45;;;;;;;;;;5038058;28;20029;-85
2021/04/05 08:32:12;;;;;;;17.83;11.15;;;;;;;;;;5037005;28;20121;-84
2021/04/05 08:34:53;;;;;;;23.63;14.07;;;;;;;;;;5037818;28;20061;-86
2021/04/05 08:37:28;;;;;;;15.63;11.07;;;;;;;;;;5037952;28;20030;-86
2021/04/05 08:40:06;;;;;;;14.07;8.95;;;;;;;;;;5038100;28;20024;-86
2021/04/05 08:42:34;;;;;;;21.33;12.85;;;;;;;;;;5037954;28;20017;-85
2021/04/05 08:45:00;;;;;;;10.30;7.25;;;;;;;;;;5036830;28;20025;-85
2021/04/05 08:47:29;;;;;;;15.18;9.77;;;;;;;;;;5037447;28;20034;-85
2021/04/05 08:49:57;;;;;;;14.65;9.10;;;;;;;;;;5036590;28;20042;-85
2021/04/05 08:52:25;;;;;;;14.70;8.63;;;;;;;;;;5036588;28;20048;-86
2021/04/05 08:54:52;;;;;;;12.93;7.53;;;;;;;;;;5036393;28;20037;-86
2021/04/05 08:57:26;;;;;;;10.32;6.97;;;;;;;;;;5037613;28;20032;-86
2021/04/05 08:59:56;;;;;;;12.00;7.18;;;;;;;;;;5037481;28;20030;-86
2021/04/05 09:02:35;;;;;;;15.68;7.97;;;;;;;;;;5037685;28;20033;-86
2021/04/05 09:05:02;;;;;;;27.25;13.80;;;;;;;;;;5037682;28;20144;-86
2021/04/05 09:07:35;;;;;;;14.95;9.35;;;;;;;;;;5037561;28;20029;-87
2021/04/05 09:10:01;;;;;;;;;;;;;;;;;;5037047;28;20323;-88
2021/04/05 09:12:29;;;;;;;23.02;15.10;;;;;;;;;;5037336;28;19916;-87
2021/04/05 09:15:13;;;;;;;12.02;7.70;;;;;;;;;;5037422;28;20411;-86
2021/04/05 09:17:58;;;;;;;35.90;16.30;;;;;;;;;;5036628;28;20065;-87
2021/04/05 09:20:42;;;;;;;24.98;15.40;;;;;;;;;;5037266;28;20843;-87
2021/04/05 09:23:23;;;;;;;12.82;8.50;;;;;;;;;;5037384;28;20032;-86
2021/04/05 09:38:56;;;;;;;19.45;13.15;;;;;;;;;;5136195;27;20379;-86
2021/04/05 09:41:22;;;;;;;42.63;21.48;;;;;;;;;;5135875;28;20047;-85
2021/04/05 09:43:57;;;;;;;20.80;11.95;;;;;;;;;;5135652;28;20023;-86
2021/04/05 09:46:40;;;;;;;15.93;9.60;;;;;;;;;;5135557;28;20404;-85
2021/04/05 09:49:29;;;;;;;14.10;9.02;;;;;;;;;;5135606;28;20038;-86
2021/04/05 09:52:14;;;;;;;14.40;9.25;;;;;;;;;;5053031;28;20064;-85
2021/04/05 09:54:51;;;;;;;18.25;10.30;;;;;;;;;;5053174;28;20343;-85
2021/04/05 09:57:25;;;;;;;23.02;16.33;;;;;;;;;;5052870;28;20087;-85
2021/04/05 09:59:52;;;;;;;17.23;11.77;;;;;;;;;;5052862;28;20322;-85
2021/04/05 10:02:36;;;;;;;17.90;12.52;;;;;;;;;;5052701;28;20399;-85
2021/04/05 10:05:03;;;;;;;28.45;18.10;;;;;;;;;;5052770;28;20457;-87
2021/04/05 10:07:29;;;;;;;16.33;11.45;;;;;;;;;;5052535;28;20072;-86
2021/04/05 10:09:56;;;;;;;16.60;10.40;;;;;;;;;;5036151;28;20103;-86
2021/04/05 10:12:25;;;;;;;19.70;10.85;;;;;;;;;;5035751;28;20029;-86
2021/04/05 10:14:52;;;;;;;14.50;9.48;;;;;;;;;;5052551;28;20112;-85
2021/04/05 10:17:25;;;;;;;17.40;11.25;;;;;;;;;;5052520;28;20351;-85
2021/04/05 10:19:54;;;;;;;25.73;15.07;;;;;;;;;;5052603;28;20021;-86
2021/04/05 10:22:20;;;;;;;19.05;11.90;;;;;;;;;;5052144;28;20038;-86
2021/04/05 10:24:49;;;;;;;20.00;12.63;;;;;;;;;;5035642;28;20022;-85
2021/04/05 10:27:17;;;;;;;19.30;11.48;;;;;;;;;;5035098;28;20041;-85
2021/04/05 10:29:44;;;;;;;28.85;16.15;;;;;;;;;;5122493;28;20039;-86
2021/04/05 10:32:13;;;;;;;18.48;12.57;;;;;;;;;;5135164;28;20027;-86
2021/04/05 10:34:43;;;;;;;17.88;10.88;;;;;;;;;;5134839;28;20039;-86
2021/04/05 10:37:10;;;;;;;19.33;12.38;;;;;;;;;;5134506;28;20429;-85
2021/04/05 10:39:36;;;;;;;13.25;9.60;;;;;;;;;;5122031;28;20111;-87
2021/04/05 10:42:13;;;;;;;19.48;12.13;;;;;;;;;;5119696;28;20074;-85
2021/04/05 10:44:40;;;;;;;17.85;11.55;;;;;;;;;;5120801;28;20049;-85
2021/04/05 10:47:09;;;;;;;25.33;15.07;;;;;;;;;;5120781;28;20032;-85
2021/04/05 10:49:35;;;;;;;18.02;11.35;;;;;;;;;;5121235;28;20034;-86
2021/04/05 10:52:10;;;;;;;16.60;10.30;;;;;;;;;;5119641;28;20325;-87
2021/04/05 10:54:41;;;;;;;16.70;10.95;;;;;;;;;;5120956;28;20019;-87
2021/04/05 10:57:19;;;;;;;13.85;9.48;;;;;;;;;;5120776;28;20019;-88
2021/04/05 10:59:45;;;;;;;14.68;9.68;;;;;;;;;;5120812;28;20102;-86
2021/04/05 11:02:30;;;;;;;20.33;11.40;;;;;;;;;;5120893;27;20073;-91
2021/04/05 11:05:17;;;;;;;20.10;11.93;;;;;;;;;;5119766;28;20047;-86
2021/04/05 11:07:46;;;;;;;15.05;10.32;;;;;;;;;;5120917;28;20312;-86
2021/04/05 11:10:20;;;;;;;12.70;9.07;;;;;;;;;;5119536;28;20028;-85
2021/04/05 11:12:47;;;;;;;16.33;11.43;;;;;;;;;;5120486;28;20050;-86
2021/04/05 11:15:18;;;;;;;20.15;9.98;;;;;;;;;;5120546;28;20114;-86
2021/04/05 11:17:45;;;;;;;15.30;10.27;;;;;;;;;;5120397;28;20062;-86
2021/04/05 11:20:12;;;;;;;13.43;9.27;;;;;;;;;;5120323;28;20099;-86
2021/04/05 11:22:39;;;;;;;26.35;9.57;;;;;;;;;;5119012;28;20031;-86
2021/04/05 11:25:07;;;;;;;19.60;11.70;;;;;;;;;;5119043;28;20024;-88
2021/04/05 11:27:37;;;;;;;16.08;11.02;;;;;;;;;;5120296;28;20056;-89
2021/04/05 11:30:05;;;;;;;18.15;11.27;;;;;;;;;;5120259;28;20034;-89
2021/04/05 11:32:33;;;;;;;31.15;18.63;;;;;;;;;;5120048;28;20026;-88
2021/04/05 11:34:59;;;;;;;47.60;27.60;;;;;;;;;;5119188;28;20345;-88
2021/04/05 11:37:31;;;;;;;24.17;14.60;;;;;;;;;;5119631;28;20343;-89
2021/04/05 11:40:17;;;;;;;16.13;8.80;;;;;;;;;;5120166;28;20020;-90
2021/04/05 11:42:46;;;;;;;36.00;18.75;;;;;;;;;;5119123;28;20103;-89
2021/04/05 11:45:19;;;;;;;20.25;12.63;;;;;;;;;;5119885;28;20031;-89
2021/04/05 11:47:45;;;;;;;;;;;;;;;;;;5120162;28;20050;-94
2021/04/05 11:50:12;;;;;;;21.83;14.18;;;;;;;;;;5118852;28;19904;-86
2021/04/05 11:52:45;;;;;;;14.98;10.30;;;;;;;;;;5119240;28;20028;-90
2021/04/05 11:55:14;;;;;;;15.27;9.75;;;;;;;;;;5118706;28;20030;-86
2021/04/05 11:57:45;;;;;;;15.88;9.60;;;;;;;;;;5119429;28;20058;-86
2021/04/05 12:00:12;;;;;;;12.63;8.02;;;;;;;;;;5119348;28;20024;-86
2021/04/05 12:02:48;;;;;;;13.27;8.38;;;;;;;;;;5118524;28;20019;-85
2021/04/05 12:05:25;;;;;;;21.77;14.50;;;;;;;;;;5118162;28;20055;-88
2021/04/05 12:08:10;;;;;;;38.63;23.65;;;;;;;;;;5119444;28;20032;-84
2021/04/05 12:10:38;;;;;;;15.90;9.73;;;;;;;;;;5119098;28;20023;-84
2021/04/05 12:13:16;;;;;;;18.10;10.98;;;;;;;;;;5119332;28;20953;-85
2021/04/05 12:15:43;;;;;;;17.05;11.10;;;;;;;;;;5119208;28;20039;-83
2021/04/05 12:18:10;;;;;;;19.80;12.43;;;;;;;;;;5118681;28;20046;-84
2021/04/05 12:20:37;;;;;;;20.90;11.32;;;;;;;;;;5117953;28;20024;-84
2021/04/05 12:23:07;;;;;;;24.27;14.15;;;;;;;;;;5118114;28;20064;-84
2021/04/05 12:25:35;;;;;;;34.08;19.88;;;;;;;;;;5118897;28;20035;-84
2021/04/05 12:28:03;;;;;;;40.40;30.23;;;;;;;;;;5118828;28;20042;-84
2021/04/05 12:30:30;;;;;;;15.07;11.27;;;;;;;;;;5119227;28;20512;-84
2021/04/05 12:32:57;;;;;;;15.95;10.48;;;;;;;;;;5118833;28;20039;-84
2021/04/05 12:35:24;;;;;;;18.58;12.38;;;;;;;;;;5118801;28;20401;-87
2021/04/05 12:37:57;;;;;;;16.27;11.73;;;;;;;;;;5117400;28;20134;-85
2021/04/05 12:40:25;;;;;;;20.45;11.48;;;;;;;;;;5118804;28;20051;-84
2021/04/05 12:42:51;;;;;;;18.15;11.55;;;;;;;;;;5116905;28;20051;-80
2021/04/05 12:45:17;;;;;;;18.58;11.38;;;;;;;;;;5118230;28;20027;-81
2021/04/05 12:47:45;;;;;;;14.55;10.10;;;;;;;;;;5118050;28;20027;-81
2021/04/05 12:50:15;;;;;;;17.20;12.27;;;;;;;;;;5117963;28;20030;-81
2021/04/05 12:52:42;;;;;;;17.45;11.88;;;;;;;;;;5117809;28;20413;-80
2021/04/05 12:55:13;;;;;;;16.27;11.15;;;;;;;;;;5118056;28;20041;-79
2021/04/05 12:57:39;;;;;;;15.63;9.95;;;;;;;;;;5116557;28;20046;-80
2021/04/05 13:00:19;;;;;;;16.30;11.68;;;;;;;;;;5117804;28;20027;-80
2021/04/05 13:02:49;;;;;;;30.50;19.30;;;;;;;;;;5117625;28;20030;-80
2021/04/05 13:05:25;;;;;;;13.80;9.20;;;;;;;;;;5117698;28;20027;-79
2021/04/05 13:08:00;;;;;;;12.50;8.77;;;;;;;;;;5118058;28;20032;-80
2021/04/05 13:10:27;;;;;;;14.95;10.30;;;;;;;;;;5117859;28;20023;-80
2021/04/05 13:12:55;;;;;;;20.30;11.20;;;;;;;;;;5117984;28;20015;-80
2021/04/05 13:15:22;;;;;;;13.60;9.48;;;;;;;;;;5124987;27;20035;-83
2021/04/05 13:17:50;;;;;;;13.52;9.60;;;;;;;;;;5137914;27;20038;-84
2021/04/05 13:20:18;;;;;;;24.63;12.30;;;;;;;;;;5138673;27;20411;-84
2021/04/05 13:22:52;;;;;;;17.13;10.57;;;;;;;;;;5138676;27;20027;-84
2021/04/05 13:25:30;;;;;;;18.63;10.75;;;;;;;;;;5138372;28;20023;-84
2021/04/05 13:27:58;;;;;;;19.75;12.93;;;;;;;;;;5137502;28;20121;-84
2021/04/05 13:30:30;;;;;;;24.92;15.95;;;;;;;;;;5137288;28;20031;-86
2021/04/05 13:32:56;;;;;;;22.00;12.70;;;;;;;;;;5137454;28;20027;-85
2021/04/05 13:35:23;;;;;;;23.05;13.55;;;;;;;;;;5138590;28;20409;-85
2021/04/05 13:37:51;;;;;;;32.47;19.13;;;;;;;;;;5137285;28;20067;-85
2021/04/05 13:40:24;;;;;;;21.45;14.10;;;;;;;;;;5138484;28;20035;-85
2021/04/05 13:42:51;;;;;;;28.15;16.58;;;;;;;;;;5138395;28;20028;-86
2021/04/05 13:45:18;;;;;;;13.60;9.25;;;;;;;;;;5138382;28;20027;-86
2021/04/05 13:47:47;;;;;;;11.65;8.40;;;;;;;;;;5138137;28;20023;-85
2021/04/05 13:50:20;;;;;;;19.75;10.30;;;;;;;;;;5138547;28;20041;-86
2021/04/05 13:52:48;;;;;;;19.98;13.07;;;;;;;;;;5138634;28;20023;-86
2021/04/05 13:55:20;;;;;;;23.80;14.77;;;;;;;;;;5137396;28;20297;-85
2021/04/05 13:57:48;;;;;;;15.43;11.13;;;;;;;;;;5138068;28;20034;-84
2021/04/05 14:00:20;;;;;;;17.58;11.55;;;;;;;;;;5136971;28;20297;-84
2021/04/05 14:02:51;;;;;;;11.65;8.85;;;;;;;;;;5117604;28;20138;-84
2021/04/05 14:05:18;;;;;;;26.15;16.33;;;;;;;;;;5116510;28;20024;-81
2021/04/05 14:07:46;;;;;;;42.28;29.48;;;;;;;;;;5117487;28;20028;-85
2021/04/05 14:10:14;;;;;;;23.83;16.42;;;;;;;;;;5117813;28;20110;-84
2021/04/05 14:12:42;;;;;;;25.05;14.00;;;;;;;;;;5116283;28;20131;-85
2021/04/05 14:15:10;;;;;;;42.17;23.35;;;;;;;;;;5120342;28;20028;-85
2021/04/05 14:17:42;;;;;;;17.42;12.10;;;;;;;;;;5121486;28;20432;-83
2021/04/05 14:20:08;;;;;;;168.20;77.45;;;;;;;;;;5120545;28;20024;-85
2021/04/05 14:22:36;;;;;;;128.45;55.40;;;;;;;;;;5120059;28;20026;-86
2021/04/05 14:25:21;;;;;;;991.58;476.00;;;;;;;;;;5120309;28;20042;-85
2021/04/05 14:27:49;;;;;;;87.28;39.67;;;;;;;;;;5121535;28;20047;-85
2021/04/05 14:30:18;;;;;;;992.05;440.42;;;;;;;;;;5121350;28;20035;-85
2021/04/05 14:32:52;;;;;;;268.88;100.63;;;;;;;;;;5121217;28;20031;-85
2021/04/05 14:35:24;;;;;;;168.20;62.72;;;;;;;;;;5120250;28;20436;-85
2021/04/05 14:37:52;;;;;;;71.55;34.78;;;;;;;;;;5120931;28;20040;-85
2021/04/05 14:40:20;;;;;;;89.22;34.30;;;;;;;;;;5121026;28;20034;-85
2021/04/05 14:42:54;;;;;;;67.57;26.27;;;;;;;;;;5121171;28;20019;-85
2021/04/05 14:45:22;;;;;;;111.10;45.55;;;;;;;;;;5120879;28;20024;-85
2021/04/05 14:47:54;;;;;;;529.30;221.50;;;;;;;;;;5120951;28;20024;-86
2021/04/05 14:50:26;;;;;;;374.20;145.07;;;;;;;;;;5120041;28;20359;-86
2021/04/05 14:52:57;;;;;;;908.75;409.48;;;;;;;;;;5119952;28;20028;-86
2021/04/05 14:55:24;;;;;;;137.07;56.67;;;;;;;;;;5119467;28;20331;-87
2021/04/05 14:57:51;;;;;;;395.92;134.55;;;;;;;;;;5118928;28;20085;-85